ELY573 LLBG-LROP
Flight info
| Callsign | ELY573 |
|---|---|
| Flight time | 2h 17m |
| Altitude | 38000 |
| Route | DAFNA DCT VELOX N71 ALSUS L620 VESAR UB545 OKLAM UL619 MAKOL L619 WRN DCT KOMAN DCT OBUGA |
| Aircraft | B772/H-SDE2E3FGHIJ4J5LM1OP2RVWXY/LB1D1 |
Departure
| Time | 2026-05-01 11:17 |
|---|---|
| Airport | Ben Gurion International Airport (LLBG) |
Arrival
| Time | 2026-05-01 13:34 |
|---|---|
| Airport | Bucharest Henri Coandă International Airport (LROP) |
| Time | Latitude | Longitude | Altitude | Speed | Heading |
|---|---|---|---|---|---|
| 2026-05-01 10:35 | 32.00420 | 34.87616 | 124 ft | 0 kts | 237° |
| 2026-05-01 11:06 | 32.00420 | 34.87617 | 124 ft | 2 kts | 237° |
| 2026-05-01 11:06 | 32.00433 | 34.87641 | 124 ft | 4 kts | 237° |
| 2026-05-01 11:06 | 32.00447 | 34.87667 | 120 ft | 4 kts | 238° |
| 2026-05-01 11:07 | 32.00442 | 34.87715 | 120 ft | 4 kts | 335° |
| 2026-05-01 11:07 | 32.00417 | 34.87725 | 120 ft | 4 kts | 350° |
| 2026-05-01 11:07 | 32.00390 | 34.87729 | 124 ft | 4 kts | 354° |
| 2026-05-01 11:07 | 32.00363 | 34.87733 | 124 ft | 4 kts | 346° |
| 2026-05-01 11:08 | 32.00338 | 34.87736 | 124 ft | 4 kts | 14° |
| 2026-05-01 11:08 | 32.00313 | 34.87724 | 122 ft | 4 kts | 32° |
| 2026-05-01 11:08 | 32.00302 | 34.87716 | 124 ft | 0 kts | 31° |
| 2026-05-01 11:11 | 32.00339 | 34.87742 | 124 ft | 9 kts | 31° |
| 2026-05-01 11:12 | 32.00395 | 34.87780 | 124 ft | 9 kts | 31° |
| 2026-05-01 11:12 | 32.00454 | 34.87823 | 121 ft | 12 kts | 31° |
| 2026-05-01 11:12 | 32.00529 | 34.87877 | 123 ft | 13 kts | 31° |
| 2026-05-01 11:12 | 32.00614 | 34.87937 | 124 ft | 18 kts | 31° |
| 2026-05-01 11:13 | 32.00747 | 34.88033 | 124 ft | 26 kts | 32° |
| 2026-05-01 11:13 | 32.00903 | 34.88146 | 121 ft | 27 kts | 32° |
| 2026-05-01 11:13 | 32.01064 | 34.88262 | 121 ft | 27 kts | 31° |
| 2026-05-01 11:13 | 32.01226 | 34.88380 | 123 ft | 27 kts | 33° |
| 2026-05-01 11:14 | 32.01372 | 34.88537 | 120 ft | 29 kts | 52° |
| 2026-05-01 11:14 | 32.01470 | 34.88739 | 120 ft | 26 kts | 69° |
| 2026-05-01 11:14 | 32.01509 | 34.88924 | 123 ft | 20 kts | 79° |
| 2026-05-01 11:14 | 32.01531 | 34.89068 | 120 ft | 14 kts | 79° |
| 2026-05-01 11:15 | 32.01568 | 34.89151 | 120 ft | 11 kts | 22° |
| 2026-05-01 11:15 | 32.01653 | 34.89150 | 121 ft | 14 kts | 350° |
| 2026-05-01 11:15 | 32.01727 | 34.89134 | 120 ft | 6 kts | 349° |
| 2026-05-01 11:15 | 32.01748 | 34.89104 | 118 ft | 5 kts | 276° |
| 2026-05-01 11:16 | 32.01740 | 34.89054 | 121 ft | 16 kts | 259° |
| 2026-05-01 11:16 | 32.01686 | 34.88702 | 121 ft | 80 kts | 259° |
| 2026-05-01 11:16 | 32.01544 | 34.87769 | 120 ft | 149 kts | 260° |
| 2026-05-01 11:16 | 32.01328 | 34.86394 | 485 ft | 177 kts | 261° |
| 2026-05-01 11:17 | 32.01105 | 34.85022 | 1571 ft | 169 kts | 262° |
| 2026-05-01 11:17 | 32.00890 | 34.83672 | 2403 ft | 166 kts | 260° |
| 2026-05-01 11:17 | 32.00650 | 34.82289 | 2912 ft | 177 kts | 258° |
| 2026-05-01 11:17 | 32.00376 | 34.80858 | 3503 ft | 181 kts | 257° |
| 2026-05-01 11:18 | 32.00082 | 34.79366 | 3874 ft | 200 kts | 258° |
| 2026-05-01 11:18 | 31.99754 | 34.77657 | 4043 ft | 226 kts | 257° |
| 2026-05-01 11:18 | 31.99398 | 34.75771 | 4369 ft | 243 kts | 264° |
| 2026-05-01 11:18 | 31.99608 | 34.73746 | 4718 ft | 259 kts | 290° |
| 2026-05-01 11:19 | 32.00305 | 34.71702 | 5029 ft | 280 kts | 291° |
| 2026-05-01 11:19 | 32.01017 | 34.69452 | 5249 ft | 307 kts | 289° |
| 2026-05-01 11:19 | 32.01761 | 34.67026 | 5850 ft | 319 kts | 289° |
| 2026-05-01 11:19 | 32.02526 | 34.64546 | 6661 ft | 325 kts | 289° |
| 2026-05-01 11:20 | 32.03054 | 34.61980 | 7302 ft | 327 kts | 275° |
| 2026-05-01 11:20 | 32.03182 | 34.59286 | 7926 ft | 331 kts | 271° |
| 2026-05-01 11:20 | 32.03258 | 34.56555 | 8005 ft | 336 kts | 272° |
| 2026-05-01 11:20 | 32.03366 | 34.53811 | 8005 ft | 334 kts | 272° |
| 2026-05-01 11:21 | 32.03538 | 34.51103 | 8019 ft | 328 kts | 279° |
| 2026-05-01 11:21 | 32.04390 | 34.48579 | 8498 ft | 340 kts | 303° |
| 2026-05-01 11:21 | 32.06056 | 34.46587 | 9332 ft | 345 kts | 324° |
| 2026-05-01 11:21 | 32.08240 | 34.45393 | 10143 ft | 351 kts | 343° |
| 2026-05-01 11:22 | 32.10673 | 34.45186 | 11013 ft | 351 kts | 3° |
| 2026-05-01 11:22 | 32.13127 | 34.45533 | 11748 ft | 359 kts | 5° |
| 2026-05-01 11:22 | 32.15624 | 34.45917 | 12643 ft | 364 kts | 5° |
| 2026-05-01 11:22 | 32.18161 | 34.46291 | 13506 ft | 371 kts | 4° |
| 2026-05-01 11:23 | 32.20746 | 34.46649 | 14396 ft | 377 kts | 4° |
| 2026-05-01 11:23 | 32.23364 | 34.46998 | 15333 ft | 381 kts | 3° |
| 2026-05-01 11:23 | 32.26013 | 34.47347 | 16210 ft | 386 kts | 3° |
| 2026-05-01 11:23 | 32.28702 | 34.47701 | 17092 ft | 391 kts | 2° |
| 2026-05-01 11:24 | 32.31394 | 34.47747 | 17722 ft | 386 kts | 345° |
| 2026-05-01 11:24 | 32.33870 | 34.46686 | 18434 ft | 384 kts | 326° |
| 2026-05-01 11:24 | 32.37852 | 34.42599 | 20179 ft | 381 kts | 310° |
| 2026-05-01 11:25 | 32.39726 | 34.40350 | 21041 ft | 384 kts | 310° |
| 2026-05-01 11:25 | 32.43527 | 34.35810 | 22685 ft | 392 kts | 310° |
| 2026-05-01 11:25 | 32.45463 | 34.33525 | 23463 ft | 396 kts | 310° |
| 2026-05-01 11:26 | 32.47428 | 34.31216 | 24213 ft | 399 kts | 310° |
| 2026-05-01 11:26 | 32.51409 | 34.26556 | 25682 ft | 406 kts | 310° |
| 2026-05-01 11:26 | 32.53525 | 34.24340 | 26203 ft | 414 kts | 321° |
| 2026-05-01 11:27 | 32.56174 | 34.22823 | 26668 ft | 434 kts | 336° |
| 2026-05-01 11:27 | 32.59180 | 34.22176 | 27281 ft | 443 kts | 348° |
| 2026-05-01 11:27 | 32.62267 | 34.21843 | 27804 ft | 448 kts | 348° |
| 2026-05-01 11:27 | 32.65387 | 34.21534 | 28338 ft | 452 kts | 348° |
| 2026-05-01 11:28 | 32.68532 | 34.21223 | 28880 ft | 454 kts | 348° |
| 2026-05-01 11:28 | 32.71689 | 34.20900 | 29393 ft | 457 kts | 348° |
| 2026-05-01 11:28 | 32.74864 | 34.20561 | 29863 ft | 460 kts | 348° |
| 2026-05-01 11:29 | 32.81273 | 34.19845 | 30747 ft | 465 kts | 348° |
| 2026-05-01 11:29 | 32.84501 | 34.19474 | 31133 ft | 468 kts | 348° |
| 2026-05-01 11:29 | 32.91019 | 34.18719 | 31895 ft | 473 kts | 348° |
| 2026-05-01 11:30 | 32.94305 | 34.18339 | 32242 ft | 475 kts | 348° |
| 2026-05-01 11:30 | 32.97602 | 34.17959 | 32557 ft | 477 kts | 348° |
| 2026-05-01 11:30 | 33.00922 | 34.17576 | 32823 ft | 481 kts | 348° |
| 2026-05-01 11:30 | 33.04258 | 34.17191 | 33097 ft | 483 kts | 348° |
| 2026-05-01 11:31 | 33.07602 | 34.16806 | 33500 ft | 482 kts | 348° |
| 2026-05-01 11:31 | 33.10936 | 34.16423 | 33926 ft | 481 kts | 348° |
| 2026-05-01 11:31 | 33.14261 | 34.16041 | 34339 ft | 479 kts | 348° |
| 2026-05-01 11:31 | 33.17580 | 34.15657 | 34739 ft | 479 kts | 348° |
| 2026-05-01 11:32 | 33.20894 | 34.15273 | 35106 ft | 478 kts | 348° |
| 2026-05-01 11:32 | 33.24207 | 34.14887 | 35463 ft | 478 kts | 348° |
| 2026-05-01 11:32 | 33.27520 | 34.14500 | 35790 ft | 479 kts | 348° |
| 2026-05-01 11:32 | 33.30794 | 34.14119 | 36110 ft | 479 kts | 348° |
| 2026-05-01 11:33 | 33.34152 | 34.13730 | 36452 ft | 479 kts | 348° |
| 2026-05-01 11:33 | 33.37470 | 34.13345 | 36710 ft | 480 kts | 348° |
| 2026-05-01 11:33 | 33.40793 | 34.12957 | 37015 ft | 480 kts | 348° |
| 2026-05-01 11:33 | 33.44076 | 34.12575 | 37366 ft | 479 kts | 348° |
| 2026-05-01 11:34 | 33.47386 | 34.12189 | 37712 ft | 478 kts | 348° |
| 2026-05-01 11:34 | 33.50701 | 34.11802 | 37902 ft | 480 kts | 348° |
| 2026-05-01 11:34 | 33.54037 | 34.11411 | 37934 ft | 483 kts | 348° |
| 2026-05-01 11:35 | 33.60698 | 34.10632 | 37949 ft | 477 kts | 348° |
| 2026-05-01 11:35 | 33.67276 | 34.09863 | 37946 ft | 474 kts | 348° |
| 2026-05-01 11:36 | 33.73829 | 34.09093 | 37956 ft | 473 kts | 348° |
| 2026-05-01 11:36 | 33.80428 | 34.08689 | 37943 ft | 482 kts | 358° |
| 2026-05-01 11:37 | 33.87067 | 34.10335 | 37948 ft | 495 kts | 14° |
| 2026-05-01 11:37 | 33.93492 | 34.13391 | 37957 ft | 497 kts | 17° |
| 2026-05-01 11:38 | 33.99901 | 34.16534 | 37956 ft | 497 kts | 16° |
| 2026-05-01 11:38 | 34.06324 | 34.19609 | 37956 ft | 497 kts | 15° |
| 2026-05-01 11:39 | 34.12761 | 34.22650 | 37944 ft | 497 kts | 15° |
| 2026-05-01 11:39 | 34.19198 | 34.25689 | 37949 ft | 497 kts | 16° |
| 2026-05-01 11:40 | 34.25629 | 34.28738 | 37944 ft | 497 kts | 16° |
| 2026-05-01 11:40 | 34.32059 | 34.31795 | 37950 ft | 496 kts | 16° |
| 2026-05-01 11:41 | 34.38485 | 34.34852 | 37950 ft | 496 kts | 16° |
| 2026-05-01 11:41 | 34.44921 | 34.37920 | 37947 ft | 497 kts | 16° |
| 2026-05-01 11:42 | 34.51324 | 34.40925 | 37943 ft | 496 kts | 15° |
| 2026-05-01 11:42 | 34.57774 | 34.43911 | 37945 ft | 496 kts | 15° |
| 2026-05-01 11:43 | 34.64219 | 34.46905 | 37943 ft | 496 kts | 16° |
| 2026-05-01 11:43 | 34.70668 | 34.49915 | 37941 ft | 496 kts | 16° |
| 2026-05-01 11:44 | 34.80336 | 34.54442 | 37940 ft | 496 kts | 16° |
| 2026-05-01 11:44 | 34.86776 | 34.57464 | 37946 ft | 496 kts | 16° |
| 2026-05-01 11:45 | 34.93213 | 34.60489 | 37941 ft | 496 kts | 16° |
| 2026-05-01 11:45 | 34.99660 | 34.63430 | 37922 ft | 489 kts | 9° |
| 2026-05-01 11:46 | 35.02975 | 34.63920 | 37937 ft | 475 kts | 351° |
| 2026-05-01 11:46 | 35.06198 | 34.63325 | 37944 ft | 465 kts | 338° |
| 2026-05-01 11:46 | 35.09158 | 34.61867 | 37932 ft | 453 kts | 324° |
| 2026-05-01 11:46 | 35.11838 | 34.59873 | 37939 ft | 452 kts | 323° |
| 2026-05-01 11:47 | 35.17212 | 34.55880 | 37945 ft | 457 kts | 324° |
| 2026-05-01 11:47 | 35.21805 | 34.52528 | 37948 ft | 460 kts | 324° |
| 2026-05-01 11:48 | 35.28224 | 34.47887 | 37942 ft | 461 kts | 324° |
| 2026-05-01 11:48 | 35.32842 | 34.44554 | 37938 ft | 460 kts | 324° |
| 2026-05-01 11:49 | 35.38343 | 34.40572 | 37951 ft | 458 kts | 324° |
| 2026-05-01 11:49 | 35.43792 | 34.36618 | 37949 ft | 457 kts | 324° |
| 2026-05-01 11:50 | 35.49262 | 34.32645 | 37940 ft | 457 kts | 324° |
| 2026-05-01 11:50 | 35.54720 | 34.28670 | 37943 ft | 456 kts | 324° |
| 2026-05-01 11:51 | 35.60182 | 34.24689 | 37943 ft | 456 kts | 324° |
| 2026-05-01 11:51 | 35.65649 | 34.20697 | 37941 ft | 457 kts | 324° |
| 2026-05-01 11:52 | 35.71120 | 34.16697 | 37942 ft | 457 kts | 324° |
| 2026-05-01 11:52 | 35.76581 | 34.12676 | 37943 ft | 458 kts | 324° |
| 2026-05-01 11:53 | 35.82047 | 34.08635 | 37945 ft | 458 kts | 324° |
| 2026-05-01 11:53 | 35.87514 | 34.04589 | 37951 ft | 458 kts | 324° |
| 2026-05-01 11:54 | 35.92980 | 34.00536 | 37946 ft | 458 kts | 324° |
| 2026-05-01 11:54 | 35.98414 | 33.96435 | 37949 ft | 457 kts | 324° |
| 2026-05-01 11:55 | 36.03799 | 33.92340 | 37947 ft | 457 kts | 324° |
| 2026-05-01 11:55 | 36.09219 | 33.88218 | 37949 ft | 458 kts | 324° |
| 2026-05-01 11:56 | 36.14641 | 33.84094 | 37951 ft | 457 kts | 324° |
| 2026-05-01 11:56 | 36.20059 | 33.79966 | 37943 ft | 458 kts | 324° |
| 2026-05-01 11:57 | 36.25477 | 33.75831 | 37950 ft | 457 kts | 324° |
| 2026-05-01 11:57 | 36.30897 | 33.71699 | 37959 ft | 457 kts | 324° |
| 2026-05-01 11:58 | 36.36315 | 33.67571 | 37945 ft | 457 kts | 324° |
| 2026-05-01 11:59 | 36.44437 | 33.61371 | 37935 ft | 457 kts | 324° |
| 2026-05-01 11:59 | 36.49844 | 33.57230 | 37940 ft | 456 kts | 324° |
| 2026-05-01 12:00 | 36.57942 | 33.51014 | 37935 ft | 455 kts | 324° |
| 2026-05-01 12:01 | 36.66015 | 33.44803 | 37936 ft | 455 kts | 324° |
| 2026-05-01 12:01 | 36.71393 | 33.40659 | 37932 ft | 454 kts | 324° |
| 2026-05-01 12:02 | 36.76731 | 33.36534 | 37938 ft | 454 kts | 324° |
| 2026-05-01 12:02 | 36.82106 | 33.32377 | 37928 ft | 455 kts | 323° |
| 2026-05-01 12:03 | 36.87214 | 33.27807 | 37933 ft | 450 kts | 315° |
| 2026-05-01 12:03 | 36.91570 | 33.22274 | 37942 ft | 445 kts | 308° |
| 2026-05-01 12:04 | 36.95732 | 33.16540 | 37931 ft | 445 kts | 308° |
| 2026-05-01 12:04 | 36.99898 | 33.10814 | 37932 ft | 445 kts | 308° |
| 2026-05-01 12:05 | 37.04069 | 33.05102 | 37939 ft | 445 kts | 308° |
| 2026-05-01 12:05 | 37.10329 | 32.96537 | 37931 ft | 445 kts | 308° |
| 2026-05-01 12:06 | 37.14502 | 32.90813 | 37937 ft | 445 kts | 308° |
| 2026-05-01 12:06 | 37.18673 | 32.85080 | 37939 ft | 445 kts | 308° |
| 2026-05-01 12:07 | 37.22841 | 32.79346 | 37932 ft | 444 kts | 308° |
| 2026-05-01 12:07 | 37.26994 | 32.73618 | 37933 ft | 444 kts | 308° |
| 2026-05-01 12:08 | 37.31144 | 32.67887 | 37924 ft | 443 kts | 308° |
| 2026-05-01 12:08 | 37.35284 | 32.62159 | 37923 ft | 443 kts | 308° |
| 2026-05-01 12:09 | 37.39420 | 32.56425 | 37934 ft | 440 kts | 308° |
| 2026-05-01 12:09 | 37.43443 | 32.50848 | 37916 ft | 426 kts | 307° |
| 2026-05-01 12:10 | 37.49397 | 32.42555 | 37923 ft | 427 kts | 307° |
| 2026-05-01 12:11 | 37.55389 | 32.34190 | 37925 ft | 430 kts | 307° |
| 2026-05-01 12:11 | 37.59400 | 32.28584 | 37925 ft | 431 kts | 307° |
| 2026-05-01 12:12 | 37.63417 | 32.22958 | 37923 ft | 432 kts | 307° |
| 2026-05-01 12:12 | 37.67428 | 32.17332 | 37922 ft | 432 kts | 307° |
| 2026-05-01 12:13 | 37.71445 | 32.11699 | 37926 ft | 431 kts | 307° |
| 2026-05-01 12:13 | 37.75453 | 32.06066 | 37929 ft | 431 kts | 307° |
| 2026-05-01 12:14 | 37.79459 | 32.00420 | 37922 ft | 431 kts | 307° |
| 2026-05-01 12:14 | 37.83467 | 31.94764 | 37922 ft | 432 kts | 307° |
| 2026-05-01 12:15 | 37.87470 | 31.89104 | 37923 ft | 432 kts | 307° |
| 2026-05-01 12:15 | 37.91475 | 31.83433 | 37923 ft | 431 kts | 307° |
| 2026-05-01 12:16 | 37.95470 | 31.77765 | 37929 ft | 431 kts | 307° |
| 2026-05-01 12:16 | 37.99449 | 31.72109 | 37936 ft | 429 kts | 307° |
| 2026-05-01 12:17 | 38.03423 | 31.66450 | 37938 ft | 430 kts | 307° |
| 2026-05-01 12:17 | 38.07394 | 31.60791 | 37953 ft | 430 kts | 307° |
| 2026-05-01 12:18 | 38.11368 | 31.55111 | 37957 ft | 431 kts | 307° |
| 2026-05-01 12:18 | 38.15319 | 31.49450 | 37957 ft | 431 kts | 307° |
| 2026-05-01 12:19 | 38.19302 | 31.43736 | 37946 ft | 432 kts | 306° |
| 2026-05-01 12:19 | 38.23286 | 31.38015 | 37987 ft | 432 kts | 306° |
| 2026-05-01 12:20 | 38.27269 | 31.32276 | 37960 ft | 433 kts | 306° |
| 2026-05-01 12:20 | 38.31252 | 31.26531 | 37984 ft | 433 kts | 306° |
| 2026-05-01 12:21 | 38.35231 | 31.20780 | 37979 ft | 432 kts | 306° |
| 2026-05-01 12:21 | 38.39201 | 31.15030 | 37986 ft | 432 kts | 306° |
| 2026-05-01 12:22 | 38.43173 | 31.09272 | 37980 ft | 432 kts | 306° |
| 2026-05-01 12:22 | 38.47361 | 31.03755 | 37990 ft | 438 kts | 316° |
| 2026-05-01 12:23 | 38.52565 | 30.99548 | 37958 ft | 449 kts | 328° |
| 2026-05-01 12:23 | 38.58429 | 30.96634 | 37994 ft | 455 kts | 333° |
| 2026-05-01 12:24 | 38.64379 | 30.93867 | 38001 ft | 455 kts | 333° |
| 2026-05-01 12:24 | 38.70286 | 30.91076 | 38001 ft | 455 kts | 333° |
| 2026-05-01 12:25 | 38.79190 | 30.86794 | 38010 ft | 456 kts | 333° |
| 2026-05-01 12:26 | 38.85126 | 30.83922 | 38011 ft | 456 kts | 333° |
| 2026-05-01 12:26 | 38.94029 | 30.79606 | 38021 ft | 456 kts | 333° |
| 2026-05-01 12:27 | 39.02946 | 30.75274 | 38032 ft | 457 kts | 333° |
| 2026-05-01 12:28 | 39.11873 | 30.70922 | 38035 ft | 458 kts | 332° |
| 2026-05-01 12:29 | 39.20822 | 30.66552 | 38035 ft | 459 kts | 333° |
| 2026-05-01 12:29 | 39.29790 | 30.62161 | 38057 ft | 460 kts | 333° |
| 2026-05-01 12:30 | 39.38768 | 30.57749 | 38060 ft | 461 kts | 333° |
| 2026-05-01 12:31 | 39.44757 | 30.54802 | 38075 ft | 461 kts | 333° |
| 2026-05-01 12:31 | 39.50755 | 30.51843 | 38078 ft | 462 kts | 333° |
| 2026-05-01 12:32 | 39.56743 | 30.48797 | 38070 ft | 461 kts | 330° |
| 2026-05-01 12:32 | 39.65490 | 30.43705 | 38074 ft | 462 kts | 329° |
| 2026-05-01 12:33 | 39.71348 | 30.40248 | 38066 ft | 463 kts | 329° |
| 2026-05-01 12:33 | 39.77213 | 30.36810 | 38072 ft | 462 kts | 329° |
| 2026-05-01 12:34 | 39.83080 | 30.33375 | 38078 ft | 463 kts | 329° |
| 2026-05-01 12:34 | 39.88951 | 30.29934 | 38080 ft | 463 kts | 329° |
| 2026-05-01 12:35 | 39.94825 | 30.26486 | 38076 ft | 463 kts | 329° |
| 2026-05-01 12:35 | 40.00699 | 30.23027 | 38091 ft | 464 kts | 329° |
| 2026-05-01 12:36 | 40.06577 | 30.19563 | 38085 ft | 463 kts | 329° |
| 2026-05-01 12:36 | 40.12444 | 30.16098 | 38099 ft | 463 kts | 329° |
| 2026-05-01 12:37 | 40.18310 | 30.12624 | 38106 ft | 464 kts | 329° |
| 2026-05-01 12:37 | 40.24147 | 30.09164 | 38121 ft | 463 kts | 329° |
| 2026-05-01 12:38 | 40.30026 | 30.05672 | 38132 ft | 464 kts | 329° |
| 2026-05-01 12:38 | 40.35905 | 30.02174 | 38151 ft | 464 kts | 329° |
| 2026-05-01 12:39 | 40.40839 | 29.99231 | 38160 ft | 465 kts | 329° |
| 2026-05-01 12:39 | 40.46716 | 29.95721 | 38159 ft | 464 kts | 329° |
| 2026-05-01 12:40 | 40.52589 | 29.92206 | 38164 ft | 464 kts | 329° |
| 2026-05-01 12:40 | 40.58425 | 29.88706 | 38158 ft | 464 kts | 329° |
| 2026-05-01 12:41 | 40.64327 | 29.85161 | 38175 ft | 463 kts | 329° |
| 2026-05-01 12:41 | 40.70160 | 29.81650 | 38178 ft | 464 kts | 329° |
| 2026-05-01 12:42 | 40.76032 | 29.78108 | 38180 ft | 464 kts | 329° |
| 2026-05-01 12:42 | 40.81910 | 29.74556 | 38176 ft | 465 kts | 329° |
| 2026-05-01 12:43 | 40.87785 | 29.71000 | 38176 ft | 464 kts | 329° |
| 2026-05-01 12:43 | 40.93655 | 29.67437 | 38174 ft | 465 kts | 329° |
| 2026-05-01 12:44 | 40.99530 | 29.63865 | 38184 ft | 465 kts | 329° |
| 2026-05-01 12:45 | 41.11276 | 29.56703 | 38185 ft | 465 kts | 330° |
| 2026-05-01 12:45 | 41.17147 | 29.53113 | 38190 ft | 465 kts | 329° |
| 2026-05-01 12:46 | 41.23194 | 29.49949 | 38193 ft | 472 kts | 338° |
| 2026-05-01 12:46 | 41.29530 | 29.47582 | 38196 ft | 473 kts | 339° |
| 2026-05-01 12:47 | 41.35884 | 29.45242 | 38187 ft | 474 kts | 339° |
| 2026-05-01 12:47 | 41.42232 | 29.42857 | 38185 ft | 474 kts | 339° |
| 2026-05-01 12:48 | 41.48564 | 29.40446 | 38184 ft | 474 kts | 339° |
| 2026-05-01 12:48 | 41.54854 | 29.38039 | 38190 ft | 473 kts | 339° |
| 2026-05-01 12:49 | 41.61227 | 29.35600 | 38194 ft | 473 kts | 339° |
| 2026-05-01 12:49 | 41.67515 | 29.33188 | 38202 ft | 473 kts | 339° |
| 2026-05-01 12:50 | 41.73849 | 29.30756 | 38214 ft | 473 kts | 339° |
| 2026-05-01 12:50 | 41.80171 | 29.28322 | 38216 ft | 473 kts | 339° |
| 2026-05-01 12:51 | 41.86499 | 29.25881 | 38216 ft | 473 kts | 339° |
| 2026-05-01 12:52 | 41.95990 | 29.22209 | 38215 ft | 473 kts | 339° |
| 2026-05-01 12:52 | 42.05484 | 29.18525 | 38214 ft | 474 kts | 339° |
| 2026-05-01 12:53 | 42.14931 | 29.14643 | 38207 ft | 470 kts | 332° |
| 2026-05-01 12:54 | 42.20515 | 29.10292 | 38212 ft | 461 kts | 319° |
| 2026-05-01 12:54 | 42.27629 | 29.01689 | 38215 ft | 458 kts | 313° |
| 2026-05-01 12:55 | 42.34662 | 28.92939 | 38229 ft | 459 kts | 314° |
| 2026-05-01 12:56 | 42.39380 | 28.87119 | 38229 ft | 459 kts | 314° |
| 2026-05-01 12:56 | 42.44106 | 28.81293 | 38232 ft | 459 kts | 314° |
| 2026-05-01 12:57 | 42.48824 | 28.75466 | 38230 ft | 459 kts | 314° |
| 2026-05-01 12:57 | 42.55890 | 28.66712 | 38255 ft | 458 kts | 314° |
| 2026-05-01 12:58 | 42.60593 | 28.60868 | 38259 ft | 459 kts | 314° |
| 2026-05-01 12:59 | 42.67615 | 28.52119 | 38256 ft | 459 kts | 314° |
| 2026-05-01 12:59 | 42.74667 | 28.43302 | 38259 ft | 458 kts | 314° |
| 2026-05-01 13:00 | 42.81706 | 28.34478 | 38266 ft | 459 kts | 314° |
| 2026-05-01 13:01 | 42.88751 | 28.25617 | 38267 ft | 460 kts | 314° |
| 2026-05-01 13:02 | 42.95793 | 28.16727 | 38268 ft | 460 kts | 314° |
| 2026-05-01 13:07 | 43.39558 | 27.48201 | 38265 ft | 457 kts | 301° |
| 2026-05-01 13:07 | 43.41303 | 27.44551 | 38270 ft | 457 kts | 301° |
| 2026-05-01 13:08 | 43.44786 | 27.37249 | 38276 ft | 456 kts | 301° |
| 2026-05-01 13:08 | 43.48263 | 27.29940 | 38276 ft | 456 kts | 301° |
| 2026-05-01 13:09 | 43.51735 | 27.22627 | 38288 ft | 456 kts | 301° |
| 2026-05-01 13:09 | 43.55200 | 27.15304 | 38287 ft | 456 kts | 301° |
| 2026-05-01 13:10 | 43.58659 | 27.07976 | 38286 ft | 456 kts | 301° |
| 2026-05-01 13:10 | 43.62116 | 27.00637 | 38273 ft | 456 kts | 301° |
| 2026-05-01 13:10 | 43.63856 | 26.96932 | 37655 ft | 464 kts | 301° |
| 2026-05-01 13:11 | 43.65608 | 26.93199 | 37018 ft | 463 kts | 301° |
| 2026-05-01 13:11 | 43.67357 | 26.89470 | 36325 ft | 462 kts | 302° |
| 2026-05-01 13:11 | 43.69104 | 26.85742 | 35557 ft | 462 kts | 302° |
| 2026-05-01 13:11 | 43.70854 | 26.82000 | 34721 ft | 464 kts | 302° |
| 2026-05-01 13:12 | 43.72605 | 26.78249 | 33863 ft | 466 kts | 302° |
| 2026-05-01 13:12 | 43.74368 | 26.74471 | 32958 ft | 468 kts | 302° |
| 2026-05-01 13:12 | 43.76131 | 26.70685 | 32160 ft | 468 kts | 302° |
| 2026-05-01 13:12 | 43.77882 | 26.66922 | 31514 ft | 463 kts | 302° |
| 2026-05-01 13:13 | 43.79620 | 26.63184 | 30864 ft | 459 kts | 302° |
| 2026-05-01 13:13 | 43.81339 | 26.59479 | 30236 ft | 455 kts | 302° |
| 2026-05-01 13:13 | 43.83042 | 26.55804 | 29580 ft | 452 kts | 302° |
| 2026-05-01 13:13 | 43.84736 | 26.52142 | 28896 ft | 449 kts | 302° |
| 2026-05-01 13:14 | 43.86410 | 26.48520 | 28213 ft | 444 kts | 302° |
| 2026-05-01 13:14 | 43.88066 | 26.44936 | 27540 ft | 439 kts | 302° |
| 2026-05-01 13:14 | 43.89699 | 26.41393 | 26877 ft | 434 kts | 302° |
| 2026-05-01 13:14 | 43.91313 | 26.37890 | 26215 ft | 429 kts | 302° |
| 2026-05-01 13:15 | 43.92907 | 26.34423 | 25563 ft | 424 kts | 302° |
| 2026-05-01 13:15 | 43.94466 | 26.31033 | 24923 ft | 420 kts | 302° |
| 2026-05-01 13:15 | 43.96024 | 26.27638 | 24277 ft | 415 kts | 302° |
| 2026-05-01 13:15 | 43.97623 | 26.24333 | 23638 ft | 410 kts | 307° |
| 2026-05-01 13:16 | 43.99486 | 26.21368 | 23003 ft | 406 kts | 314° |
| 2026-05-01 13:16 | 44.01532 | 26.18697 | 22377 ft | 402 kts | 319° |
| 2026-05-01 13:16 | 44.03752 | 26.16374 | 21767 ft | 397 kts | 326° |
| 2026-05-01 13:17 | 44.10408 | 26.09850 | 19968 ft | 379 kts | 316° |
| 2026-05-01 13:17 | 44.12004 | 26.06960 | 19402 ft | 378 kts | 299° |
| 2026-05-01 13:18 | 44.13729 | 26.00122 | 18264 ft | 373 kts | 289° |
| 2026-05-01 13:18 | 44.14491 | 25.96679 | 17715 ft | 371 kts | 289° |
| 2026-05-01 13:18 | 44.15255 | 25.93253 | 17160 ft | 370 kts | 289° |
| 2026-05-01 13:18 | 44.16024 | 25.89837 | 16591 ft | 369 kts | 289° |
| 2026-05-01 13:19 | 44.16794 | 25.86442 | 16041 ft | 367 kts | 289° |
| 2026-05-01 13:19 | 44.17564 | 25.83056 | 15482 ft | 366 kts | 289° |
| 2026-05-01 13:19 | 44.19096 | 25.76329 | 14378 ft | 363 kts | 289° |
| 2026-05-01 13:20 | 44.19857 | 25.72991 | 13818 ft | 361 kts | 289° |
| 2026-05-01 13:20 | 44.20615 | 25.69658 | 13268 ft | 360 kts | 289° |
| 2026-05-01 13:20 | 44.21368 | 25.66349 | 12719 ft | 358 kts | 289° |
| 2026-05-01 13:21 | 44.22864 | 25.59753 | 11635 ft | 355 kts | 289° |
| 2026-05-01 13:21 | 44.23611 | 25.56486 | 11076 ft | 348 kts | 292° |
| 2026-05-01 13:21 | 44.24771 | 25.53663 | 10798 ft | 328 kts | 314° |
| 2026-05-01 13:21 | 44.26523 | 25.51772 | 10663 ft | 312 kts | 333° |
| 2026-05-01 13:22 | 44.28476 | 25.50629 | 10496 ft | 299 kts | 346° |
| 2026-05-01 13:22 | 44.30512 | 25.50154 | 10227 ft | 293 kts | 355° |
| 2026-05-01 13:22 | 44.32513 | 25.49889 | 10029 ft | 285 kts | 355° |
| 2026-05-01 13:22 | 44.34469 | 25.49627 | 9820 ft | 278 kts | 355° |
| 2026-05-01 13:23 | 44.36369 | 25.49360 | 9548 ft | 274 kts | 355° |
| 2026-05-01 13:23 | 44.38256 | 25.49079 | 9217 ft | 272 kts | 354° |
| 2026-05-01 13:23 | 44.40134 | 25.48790 | 8890 ft | 270 kts | 354° |
| 2026-05-01 13:23 | 44.41994 | 25.48499 | 8563 ft | 268 kts | 354° |
| 2026-05-01 13:24 | 44.43844 | 25.48205 | 8271 ft | 267 kts | 354° |
| 2026-05-01 13:24 | 44.45682 | 25.47920 | 7943 ft | 265 kts | 354° |
| 2026-05-01 13:24 | 44.47519 | 25.47647 | 7591 ft | 265 kts | 355° |
| 2026-05-01 13:25 | 44.50993 | 25.48174 | 6972 ft | 255 kts | 33° |
| 2026-05-01 13:25 | 44.52245 | 25.49898 | 6674 ft | 254 kts | 55° |
| 2026-05-01 13:25 | 44.53035 | 25.52081 | 6386 ft | 248 kts | 75° |
| 2026-05-01 13:25 | 44.53234 | 25.54463 | 6089 ft | 245 kts | 85° |
| 2026-05-01 13:26 | 44.53362 | 25.56847 | 5884 ft | 247 kts | 83° |
| 2026-05-01 13:26 | 44.53474 | 25.58459 | 5746 ft | 245 kts | 83° |
| 2026-05-01 13:26 | 44.53727 | 25.61584 | 5358 ft | 245 kts | 82° |
| 2026-05-01 13:26 | 44.53858 | 25.63182 | 5154 ft | 244 kts | 82° |
| 2026-05-01 13:27 | 44.54048 | 25.65555 | 4857 ft | 244 kts | 82° |
| 2026-05-01 13:27 | 44.54251 | 25.67931 | 4633 ft | 248 kts | 82° |
| 2026-05-01 13:27 | 44.54861 | 25.72669 | 4051 ft | 245 kts | 76° |
| 2026-05-01 13:28 | 44.55308 | 25.77259 | 3774 ft | 232 kts | 84° |
| 2026-05-01 13:28 | 44.55444 | 25.79455 | 3649 ft | 224 kts | 83° |
| 2026-05-01 13:29 | 44.55766 | 25.83570 | 3475 ft | 200 kts | 82° |
| 2026-05-01 13:29 | 44.56058 | 25.87288 | 3145 ft | 185 kts | 83° |
| 2026-05-01 13:30 | 44.56569 | 25.93987 | 2425 ft | 170 kts | 83° |
| 2026-05-01 13:31 | 44.56799 | 25.97142 | 1941 ft | 158 kts | 84° |
| 2026-05-01 13:31 | 44.57114 | 26.01243 | 1335 ft | 130 kts | 84° |
| 2026-05-01 13:32 | 44.57312 | 26.03797 | 1025 ft | 132 kts | 85° |
| 2026-05-01 13:33 | 44.57602 | 26.07592 | 494 ft | 131 kts | 84° |
| 2026-05-01 13:33 | 44.57782 | 26.09994 | 326 ft | 101 kts | 84° |
| 2026-05-01 13:34 | 44.57883 | 26.11328 | 323 ft | 50 kts | 84° |
| 2026-05-01 13:34 | 44.57946 | 26.12158 | 325 ft | 37 kts | 84° |
| 2026-05-01 13:35 | 44.57984 | 26.12702 | 322 ft | 17 kts | 94° |
| 2026-05-01 13:35 | 44.57915 | 26.12826 | 322 ft | 15 kts | 145° |
| 2026-05-01 13:35 | 44.57819 | 26.12776 | 323 ft | 11 kts | 259° |
| 2026-05-01 13:36 | 44.57804 | 26.12573 | 324 ft | 26 kts | 263° |
| 2026-05-01 13:36 | 44.57783 | 26.12304 | 323 ft | 28 kts | 264° |
| 2026-05-01 13:36 | 44.57743 | 26.11760 | 325 ft | 28 kts | 263° |
| 2026-05-01 13:37 | 44.57721 | 26.11487 | 325 ft | 28 kts | 264° |
| 2026-05-01 13:37 | 44.57701 | 26.11213 | 325 ft | 28 kts | 264° |
| 2026-05-01 13:37 | 44.57680 | 26.10940 | 325 ft | 28 kts | 263° |
| 2026-05-01 13:37 | 44.57660 | 26.10667 | 325 ft | 28 kts | 264° |
| 2026-05-01 13:38 | 44.57618 | 26.10120 | 325 ft | 28 kts | 264° |
| 2026-05-01 13:38 | 44.57598 | 26.09848 | 325 ft | 28 kts | 264° |
| 2026-05-01 13:38 | 44.57577 | 26.09576 | 324 ft | 28 kts | 264° |
| 2026-05-01 13:39 | 44.57556 | 26.09302 | 322 ft | 28 kts | 264° |
| 2026-05-01 13:39 | 44.57536 | 26.09029 | 325 ft | 28 kts | 264° |
| 2026-05-01 13:39 | 44.57515 | 26.08756 | 325 ft | 28 kts | 264° |
| 2026-05-01 13:39 | 44.57500 | 26.08557 | 323 ft | 15 kts | 261° |
| 2026-05-01 13:40 | 44.57428 | 26.08476 | 324 ft | 15 kts | 181° |
| 2026-05-01 13:40 | 44.57327 | 26.08491 | 325 ft | 15 kts | 174° |
| 2026-05-01 13:40 | 44.57227 | 26.08505 | 325 ft | 15 kts | 174° |
| 2026-05-01 13:40 | 44.57122 | 26.08520 | 325 ft | 16 kts | 174° |
| 2026-05-01 13:41 | 44.57005 | 26.08536 | 322 ft | 16 kts | 174° |
| 2026-05-01 13:41 | 44.56919 | 26.08527 | 323 ft | 12 kts | 217° |
| 2026-05-01 13:41 | 44.56909 | 26.08433 | 321 ft | 9 kts | 299° |
| 2026-05-01 13:41 | 44.56951 | 26.08396 | 321 ft | 5 kts | 334° |
| 2026-05-01 13:42 | 44.56980 | 26.08358 | 322 ft | 6 kts | 311° |
| 2026-05-01 13:42 | 44.57010 | 26.08308 | 322 ft | 5 kts | 309° |
| 2026-05-01 13:42 | 44.57011 | 26.08306 | 325 ft | 0 kts | 309° |
| 2026-05-01 13:43 | 44.57013 | 26.08303 | 325 ft | 4 kts | 309° |
| 2026-05-01 13:43 | 44.57030 | 26.08274 | 325 ft | 2 kts | 309° |
| 2026-05-01 13:44 | 44.57037 | 26.08261 | 322 ft | 1 kts | 309° |
| 2026-05-01 13:44 | 44.57039 | 26.08259 | 325 ft | 0 kts | 309° |